sensor_id;sensor_type;location;lat;lon;timestamp;pressure;altitude;pressure_sealevel;temperature;humidity
10688;BME280;5392;42.688;23.298;2023-08-20T00:00:04;57313.22;;;-144.48;66.73
10688;BME280;5392;42.688;23.298;2023-08-20T00:02:32;57321.59;;;-144.48;66.78
10688;BME280;5392;42.688;23.298;2023-08-20T00:05:01;57315.31;;;-144.48;66.59
10688;BME280;5392;42.688;23.298;2023-08-20T00:07:32;57267.31;;;-144.48;66.64
10688;BME280;5392;42.688;23.298;2023-08-20T00:09:59;57267.31;;;-144.48;66.59
10688;BME280;5392;42.688;23.298;2023-08-20T00:12:26;57298.63;;;-144.48;66.50
10688;BME280;5392;42.688;23.298;2023-08-20T00:15:00;57288.19;;;-144.48;66.43
10688;BME280;5392;42.688;23.298;2023-08-20T00:17:35;57315.31;;;-144.48;66.11
10688;BME280;5392;42.688;23.298;2023-08-20T00:20:05;57284.00;;;-144.48;66.19
10688;BME280;5392;42.688;23.298;2023-08-20T00:22:42;57275.66;;;-144.48;66.47
10688;BME280;5392;42.688;23.298;2023-08-20T00:25:12;57263.16;;;-144.48;66.69
10688;BME280;5392;42.688;23.298;2023-08-20T00:27:40;57256.88;;;-144.48;67.00
10688;BME280;5392;42.688;23.298;2023-08-20T00:30:07;57311.16;;;-144.48;67.15
10688;BME280;5392;42.688;23.298;2023-08-20T00:32:35;57300.72;;;-144.48;67.08
10688;BME280;5392;42.688;23.298;2023-08-20T00:35:03;57302.81;;;-144.48;67.12
10688;BME280;5392;42.688;23.298;2023-08-20T00:37:30;57296.53;;;-144.48;67.08
10688;BME280;5392;42.688;23.298;2023-08-20T00:39:58;57323.66;;;-144.48;67.22
10688;BME280;5392;42.688;23.298;2023-08-20T00:42:27;57281.94;;;-144.48;67.30
10688;BME280;5392;42.688;23.298;2023-08-20T00:44:53;57269.41;;;-144.48;67.14
10688;BME280;5392;42.688;23.298;2023-08-20T00:47:20;57300.72;;;-144.48;67.14
10688;BME280;5392;42.688;23.298;2023-08-20T00:49:48;57286.09;;;-144.48;67.18
10688;BME280;5392;42.688;23.298;2023-08-20T00:52:16;57284.00;;;-144.48;67.39
10688;BME280;5392;42.688;23.298;2023-08-20T00:54:45;57275.66;;;-144.48;67.29
10688;BME280;5392;42.688;23.298;2023-08-20T00:57:18;57325.75;;;-144.48;67.32
10688;BME280;5392;42.688;23.298;2023-08-20T00:59:48;57267.31;;;-144.48;67.57
10688;BME280;5392;42.688;23.298;2023-08-20T01:02:17;57300.72;;;-144.48;67.52
10688;BME280;5392;42.688;23.298;2023-08-20T01:04:46;57317.41;;;-144.48;67.41
10688;BME280;5392;42.688;23.298;2023-08-20T01:07:39;57267.31;;;-144.48;67.11
10688;BME280;5392;42.688;23.298;2023-08-20T01:10:19;57267.31;;;-144.48;67.10
10688;BME280;5392;42.688;23.298;2023-08-20T01:12:48;57315.31;;;-144.48;67.11
10688;BME280;5392;42.688;23.298;2023-08-20T01:15:16;57286.09;;;-144.48;67.30
10688;BME280;5392;42.688;23.298;2023-08-20T01:17:43;57298.63;;;-144.48;67.04
10688;BME280;5392;42.688;23.298;2023-08-20T01:20:13;57327.84;;;-144.48;67.13
10688;BME280;5392;42.688;23.298;2023-08-20T01:22:58;57284.00;;;-144.48;67.24
10688;BME280;5392;42.688;23.298;2023-08-20T01:28:31;57317.41;;;-144.48;67.00
10688;BME280;5392;42.688;23.298;2023-08-20T01:31:00;57325.75;;;-144.48;67.04
10688;BME280;5392;42.688;23.298;2023-08-20T01:33:30;57298.63;;;-144.48;67.08
10688;BME280;5392;42.688;23.298;2023-08-20T01:35:57;57336.19;;;-144.48;67.27
10688;BME280;5392;42.688;23.298;2023-08-20T01:38:24;57298.63;;;-144.48;67.34
10688;BME280;5392;42.688;23.298;2023-08-20T01:40:51;57281.94;;;-144.48;67.18
10688;BME280;5392;42.688;23.298;2023-08-20T01:43:18;57332.03;;;-144.48;67.14
10688;BME280;5392;42.688;23.298;2023-08-20T01:45:45;57288.19;;;-144.48;67.35
10688;BME280;5392;42.688;23.298;2023-08-20T01:48:12;57317.41;;;-144.48;67.21
10688;BME280;5392;42.688;23.298;2023-08-20T01:50:39;57329.94;;;-144.48;67.20
10688;BME280;5392;42.688;23.298;2023-08-20T01:53:06;57273.56;;;-144.48;67.37
10688;BME280;5392;42.688;23.298;2023-08-20T01:55:33;57306.97;;;-144.48;67.20
10688;BME280;5392;42.688;23.298;2023-08-20T01:58:00;57279.84;;;-144.48;67.36
10688;BME280;5392;42.688;23.298;2023-08-20T02:00:26;57300.72;;;-144.48;67.34
10688;BME280;5392;42.688;23.298;2023-08-20T02:02:55;57298.63;;;-144.48;67.68
10688;BME280;5392;42.688;23.298;2023-08-20T02:05:22;57296.53;;;-144.48;67.76
10688;BME280;5392;42.688;23.298;2023-08-20T02:07:49;57313.22;;;-144.48;67.93
10688;BME280;5392;42.688;23.298;2023-08-20T02:10:15;57323.66;;;-144.48;68.05
10688;BME280;5392;42.688;23.298;2023-08-20T02:12:43;57321.59;;;-144.48;68.00
10688;BME280;5392;42.688;23.298;2023-08-20T02:15:09;57311.16;;;-144.48;68.19
10688;BME280;5392;42.688;23.298;2023-08-20T02:17:37;57271.50;;;-144.48;68.32
10688;BME280;5392;42.688;23.298;2023-08-20T02:20:05;57329.94;;;-144.48;68.78
10688;BME280;5392;42.688;23.298;2023-08-20T02:22:33;57277.75;;;-144.48;68.87
10688;BME280;5392;42.688;23.298;2023-08-20T02:25:01;57271.50;;;-144.48;68.94
10688;BME280;5392;42.688;23.298;2023-08-20T02:27:28;57311.16;;;-144.48;69.31
10688;BME280;5392;42.688;23.298;2023-08-20T02:29:54;57323.66;;;-144.48;69.17
10688;BME280;5392;42.688;23.298;2023-08-20T02:32:21;57338.28;;;-144.48;69.31
10688;BME280;5392;42.688;23.298;2023-08-20T02:34:50;57325.75;;;-144.48;69.45
10688;BME280;5392;42.688;23.298;2023-08-20T02:37:17;57271.50;;;-144.48;69.78
10688;BME280;5392;42.688;23.298;2023-08-20T02:39:44;57329.94;;;-144.48;70.11
10688;BME280;5392;42.688;23.298;2023-08-20T02:42:11;57281.94;;;-144.48;70.27
10688;BME280;5392;42.688;23.298;2023-08-20T02:44:38;57265.22;;;-144.48;70.01
10688;BME280;5392;42.688;23.298;2023-08-20T02:47:05;57306.97;;;-144.48;70.52
10688;BME280;5392;42.688;23.298;2023-08-20T02:49:32;57292.38;;;-144.48;70.70
10688;BME280;5392;42.688;23.298;2023-08-20T02:51:58;57315.31;;;-144.48;70.58
10688;BME280;5392;42.688;23.298;2023-08-20T02:54:25;57325.75;;;-144.48;70.82
10688;BME280;5392;42.688;23.298;2023-08-20T02:56:53;57290.28;;;-144.48;71.09
10688;BME280;5392;42.688;23.298;2023-08-20T02:59:19;57306.97;;;-144.48;71.35
10688;BME280;5392;42.688;23.298;2023-08-20T03:01:46;57265.22;;;-144.48;71.69
10688;BME280;5392;42.688;23.298;2023-08-20T03:04:13;57296.53;;;-144.48;71.89
10688;BME280;5392;42.688;23.298;2023-08-20T03:06:40;57300.72;;;-144.48;71.88
10688;BME280;5392;42.688;23.298;2023-08-20T03:09:07;57336.19;;;-144.48;72.71
10688;BME280;5392;42.688;23.298;2023-08-20T03:11:34;57298.63;;;-144.48;73.28
10688;BME280;5392;42.688;23.298;2023-08-20T03:14:00;57302.81;;;-144.48;73.23
10688;BME280;5392;42.688;23.298;2023-08-20T03:16:27;57298.63;;;-144.48;72.96
10688;BME280;5392;42.688;23.298;2023-08-20T03:18:54;57315.31;;;-144.48;72.91
10688;BME280;5392;42.688;23.298;2023-08-20T03:21:21;57342.47;;;-144.48;72.73
10688;BME280;5392;42.688;23.298;2023-08-20T03:23:49;57327.84;;;-144.48;73.05
10688;BME280;5392;42.688;23.298;2023-08-20T03:26:16;57325.75;;;-144.48;73.33
10688;BME280;5392;42.688;23.298;2023-08-20T03:28:42;57313.22;;;-144.48;73.99
10688;BME280;5392;42.688;23.298;2023-08-20T03:31:09;57319.50;;;-144.48;75.91
10688;BME280;5392;42.688;23.298;2023-08-20T03:33:36;57334.09;;;-144.48;76.77
10688;BME280;5392;42.688;23.298;2023-08-20T03:36:03;57315.31;;;-144.48;77.76
10688;BME280;5392;42.688;23.298;2023-08-20T03:38:30;57290.28;;;-144.48;77.93
10688;BME280;5392;42.688;23.298;2023-08-20T03:40:57;57329.94;;;-144.48;78.26
10688;BME280;5392;42.688;23.298;2023-08-20T03:43:23;57323.66;;;-144.48;78.45
10688;BME280;5392;42.688;23.298;2023-08-20T03:45:51;57294.44;;;-144.48;78.95
10688;BME280;5392;42.688;23.298;2023-08-20T03:48:19;57300.72;;;-144.48;78.92
10688;BME280;5392;42.688;23.298;2023-08-20T03:50:47;57325.75;;;-144.48;78.84
10688;BME280;5392;42.688;23.298;2023-08-20T03:53:14;57302.81;;;-144.48;78.82
10688;BME280;5392;42.688;23.298;2023-08-20T03:55:40;57336.19;;;-144.48;79.19
10688;BME280;5392;42.688;23.298;2023-08-20T03:58:07;57304.88;;;-144.48;79.78
10688;BME280;5392;42.688;23.298;2023-08-20T04:00:35;57342.47;;;-144.48;79.02
10688;BME280;5392;42.688;23.298;2023-08-20T04:03:02;57321.59;;;-144.48;78.12
10688;BME280;5392;42.688;23.298;2023-08-20T04:05:29;57275.66;;;-144.48;77.41
10688;BME280;5392;42.688;23.298;2023-08-20T04:08:03;57309.06;;;-144.48;75.65
10688;BME280;5392;42.688;23.298;2023-08-20T04:10:30;57313.22;;;-144.48;73.79
10688;BME280;5392;42.688;23.298;2023-08-20T04:12:58;57298.63;;;-144.48;71.83
10688;BME280;5392;42.688;23.298;2023-08-20T04:15:25;57315.31;;;-144.48;70.52
10688;BME280;5392;42.688;23.298;2023-08-20T04:17:52;57298.63;;;-144.48;69.00
10688;BME280;5392;42.688;23.298;2023-08-20T04:20:19;57323.66;;;-144.48;66.92
10688;BME280;5392;42.688;23.298;2023-08-20T04:22:45;57269.41;;;-144.48;66.15
10688;BME280;5392;42.688;23.298;2023-08-20T04:25:12;57323.66;;;-144.48;65.40
10688;BME280;5392;42.688;23.298;2023-08-20T04:27:39;57300.72;;;-144.48;65.09
10688;BME280;5392;42.688;23.298;2023-08-20T04:30:06;57306.97;;;-144.48;65.48
10688;BME280;5392;42.688;23.298;2023-08-20T04:32:33;57321.59;;;-144.48;65.29
10688;BME280;5392;42.688;23.298;2023-08-20T04:35:00;57311.16;;;-144.48;65.70
10688;BME280;5392;42.688;23.298;2023-08-20T04:37:27;57279.84;;;-144.48;66.05
10688;BME280;5392;42.688;23.298;2023-08-20T04:39:53;57296.53;;;-144.48;64.89
10688;BME280;5392;42.688;23.298;2023-08-20T04:42:20;57267.31;;;-144.48;64.09
10688;BME280;5392;42.688;23.298;2023-08-20T04:44:47;57265.22;;;-144.48;61.50
10688;BME280;5392;42.688;23.298;2023-08-20T04:47:13;57240.19;;;-144.48;58.86
10688;BME280;5392;42.688;23.298;2023-08-20T04:49:40;57250.63;;;-144.48;56.70
10688;BME280;5392;42.688;23.298;2023-08-20T04:52:07;57290.28;;;-144.48;55.46
10688;BME280;5392;42.688;23.298;2023-08-20T04:54:34;57258.97;;;-144.48;54.76
10688;BME280;5392;42.688;23.298;2023-08-20T04:57:00;57256.88;;;-144.48;53.77
10688;BME280;5392;42.688;23.298;2023-08-20T04:59:27;57273.56;;;-144.48;52.67
10688;BME280;5392;42.688;23.298;2023-08-20T05:01:54;57279.84;;;-144.48;51.77
10688;BME280;5392;42.688;23.298;2023-08-20T05:04:21;57238.09;;;-144.48;50.58
10688;BME280;5392;42.688;23.298;2023-08-20T05:06:48;57215.13;;;-144.48;49.76
10688;BME280;5392;42.688;23.298;2023-08-20T05:09:14;57183.84;;;-144.48;48.95
10688;BME280;5392;42.688;23.298;2023-08-20T05:11:42;57160.88;;;-144.48;47.98
10688;BME280;5392;42.688;23.298;2023-08-20T05:14:09;57208.88;;;-144.48;47.18
10688;BME280;5392;42.688;23.298;2023-08-20T05:16:36;57236.00;;;-144.48;47.20
10688;BME280;5392;42.688;23.298;2023-08-20T05:19:03;57204.69;;;-144.48;46.56
10688;BME280;5392;42.688;23.298;2023-08-20T05:21:29;57194.25;;;-144.48;46.04
10688;BME280;5392;42.688;23.298;2023-08-20T05:23:56;57188.00;;;-144.48;46.19
10688;BME280;5392;42.688;23.298;2023-08-20T05:26:23;57227.66;;;-144.48;46.85
10688;BME280;5392;42.688;23.298;2023-08-20T05:28:50;57183.84;;;-144.48;46.55
10688;BME280;5392;42.688;23.298;2023-08-20T05:31:16;57192.19;;;-144.48;46.52
10688;BME280;5392;42.688;23.298;2023-08-20T05:33:43;57206.78;;;-144.48;46.60
10688;BME280;5392;42.688;23.298;2023-08-20T05:36:10;57171.31;;;-144.48;45.64
10688;BME280;5392;42.688;23.298;2023-08-20T05:38:37;57200.53;;;-144.48;45.95
10688;BME280;5392;42.688;23.298;2023-08-20T05:41:03;57173.41;;;-144.48;45.43
10688;BME280;5392;42.688;23.298;2023-08-20T05:43:30;57173.41;;;-144.48;45.21
10688;BME280;5392;42.688;23.298;2023-08-20T05:45:57;57162.97;;;-144.48;44.27
10688;BME280;5392;42.688;23.298;2023-08-20T05:48:24;57183.84;;;-144.48;43.79
10688;BME280;5392;42.688;23.298;2023-08-20T05:50:50;57198.44;;;-144.48;43.56
10688;BME280;5392;42.688;23.298;2023-08-20T05:53:17;57129.56;;;-144.48;42.97
10688;BME280;5392;42.688;23.298;2023-08-20T05:55:44;57146.25;;;-144.48;43.08
10688;BME280;5392;42.688;23.298;2023-08-20T05:58:11;57183.84;;;-144.48;44.32
10688;BME280;5392;42.688;23.298;2023-08-20T06:00:37;57144.19;;;-144.48;43.88
10688;BME280;5392;42.688;23.298;2023-08-20T06:03:05;57173.41;;;-144.48;44.83
10688;BME280;5392;42.688;23.298;2023-08-20T06:05:34;57181.75;;;-144.48;44.55
10688;BME280;5392;42.688;23.298;2023-08-20T06:08:01;57179.66;;;-144.48;44.02
10688;BME280;5392;42.688;23.298;2023-08-20T06:10:27;57190.09;;;-144.48;44.86
10688;BME280;5392;42.688;23.298;2023-08-20T06:12:54;57225.56;;;-144.48;45.29
10688;BME280;5392;42.688;23.298;2023-08-20T06:15:21;57185.91;;;-144.48;45.19
10688;BME280;5392;42.688;23.298;2023-08-20T06:17:48;57175.47;;;-144.48;44.81
10688;BME280;5392;42.688;23.298;2023-08-20T06:20:14;57225.56;;;-144.48;43.99
10688;BME280;5392;42.688;23.298;2023-08-20T06:22:41;57210.97;;;-144.48;44.35
10688;BME280;5392;42.688;23.298;2023-08-20T06:25:08;57156.69;;;-144.48;44.91
10688;BME280;5392;42.688;23.298;2023-08-20T06:27:35;57169.22;;;-144.48;44.58
10688;BME280;5392;42.688;23.298;2023-08-20T06:30:05;57175.47;;;-144.48;44.75
10688;BME280;5392;42.688;23.298;2023-08-20T06:32:32;57244.34;;;-144.48;44.45
10688;BME280;5392;42.688;23.298;2023-08-20T06:34:59;57165.03;;;-144.48;43.57
10688;BME280;5392;42.688;23.298;2023-08-20T06:37:26;57200.53;;;-144.48;43.19
10688;BME280;5392;42.688;23.298;2023-08-20T06:39:53;57181.75;;;-144.48;43.46
10688;BME280;5392;42.688;23.298;2023-08-20T06:42:19;57175.47;;;-144.48;43.93
10688;BME280;5392;42.688;23.298;2023-08-20T06:44:46;57179.66;;;-144.48;43.72
10688;BME280;5392;42.688;23.298;2023-08-20T06:47:13;57165.03;;;-144.48;43.41
10688;BME280;5392;42.688;23.298;2023-08-20T06:49:41;57196.34;;;-144.48;44.94
10688;BME280;5392;42.688;23.298;2023-08-20T06:52:08;57223.50;;;-144.48;44.34
10688;BME280;5392;42.688;23.298;2023-08-20T06:54:35;57206.78;;;-144.48;45.01
10688;BME280;5392;42.688;23.298;2023-08-20T06:57:03;57150.44;;;-144.48;43.95
10688;BME280;5392;42.688;23.298;2023-08-20T06:59:30;57227.66;;;-144.48;44.36
10688;BME280;5392;42.688;23.298;2023-08-20T07:01:56;57204.69;;;-144.48;44.34
10688;BME280;5392;42.688;23.298;2023-08-20T07:04:23;57179.66;;;-144.48;44.37
10688;BME280;5392;42.688;23.298;2023-08-20T07:06:51;57223.50;;;-144.48;44.24
10688;BME280;5392;42.688;23.298;2023-08-20T07:09:17;57196.34;;;-144.48;44.34
10688;BME280;5392;42.688;23.298;2023-08-20T07:11:44;57229.75;;;-144.48;45.50
10688;BME280;5392;42.688;23.298;2023-08-20T07:14:14;57215.13;;;-144.48;44.78
10688;BME280;5392;42.688;23.298;2023-08-20T07:16:41;57179.66;;;-144.48;45.09
10688;BME280;5392;42.688;23.298;2023-08-20T07:19:08;57208.88;;;-144.48;45.63
10688;BME280;5392;42.688;23.298;2023-08-20T07:21:34;57217.22;;;-144.48;45.73
10688;BME280;5392;42.688;23.298;2023-08-20T07:24:01;57225.56;;;-144.48;47.03
10688;BME280;5392;42.688;23.298;2023-08-20T07:26:29;57238.09;;;-144.48;45.15
10688;BME280;5392;42.688;23.298;2023-08-20T07:28:56;57244.34;;;-144.48;45.33
10688;BME280;5392;42.688;23.298;2023-08-20T07:31:27;57236.00;;;-144.48;46.58
10688;BME280;5392;42.688;23.298;2023-08-20T07:33:55;57240.19;;;-144.48;46.40
10688;BME280;5392;42.688;23.298;2023-08-20T07:36:24;57198.44;;;-144.48;46.48
10688;BME280;5392;42.688;23.298;2023-08-20T07:38:53;57231.84;;;-144.48;45.97
10688;BME280;5392;42.688;23.298;2023-08-20T07:41:21;57254.78;;;-144.48;47.11
10688;BME280;5392;42.688;23.298;2023-08-20T07:43:48;57229.75;;;-144.48;47.85
10688;BME280;5392;42.688;23.298;2023-08-20T07:46:15;57240.19;;;-144.48;48.84
10688;BME280;5392;42.688;23.298;2023-08-20T07:48:42;57288.19;;;-144.48;49.26
10688;BME280;5392;42.688;23.298;2023-08-20T07:51:10;57298.63;;;-144.48;48.65
10688;BME280;5392;42.688;23.298;2023-08-20T07:53:37;57271.50;;;-144.48;47.98
10688;BME280;5392;42.688;23.298;2023-08-20T07:56:04;57250.63;;;-144.48;47.88
10688;BME280;5392;42.688;23.298;2023-08-20T07:58:31;57215.13;;;-144.48;46.67
10688;BME280;5392;42.688;23.298;2023-08-20T08:00:58;57248.53;;;-144.48;47.01
10688;BME280;5392;42.688;23.298;2023-08-20T08:03:27;57271.50;;;-144.48;46.60
10688;BME280;5392;42.688;23.298;2023-08-20T08:05:55;57219.31;;;-144.48;46.50
10688;BME280;5392;42.688;23.298;2023-08-20T08:08:22;57242.28;;;-144.48;47.90
10688;BME280;5392;42.688;23.298;2023-08-20T08:10:49;57244.34;;;-144.48;47.28
10688;BME280;5392;42.688;23.298;2023-08-20T08:13:19;57244.34;;;-144.48;46.26
10688;BME280;5392;42.688;23.298;2023-08-20T08:15:47;57229.75;;;-144.48;46.01
10688;BME280;5392;42.688;23.298;2023-08-20T08:18:14;57231.84;;;-144.48;46.67
10688;BME280;5392;42.688;23.298;2023-08-20T08:20:41;57267.31;;;-144.48;45.89
10688;BME280;5392;42.688;23.298;2023-08-20T08:23:08;57240.19;;;-144.48;46.23
10688;BME280;5392;42.688;23.298;2023-08-20T08:25:35;57246.44;;;-144.48;46.33
10688;BME280;5392;42.688;23.298;2023-08-20T08:28:02;57254.78;;;-144.48;47.12
10688;BME280;5392;42.688;23.298;2023-08-20T08:30:29;57275.66;;;-144.48;47.64
10688;BME280;5392;42.688;23.298;2023-08-20T08:32:56;57277.75;;;-144.48;47.84
10688;BME280;5392;42.688;23.298;2023-08-20T08:35:23;57284.00;;;-144.48;46.63
10688;BME280;5392;42.688;23.298;2023-08-20T08:37:50;57238.09;;;-144.48;45.51
10688;BME280;5392;42.688;23.298;2023-08-20T08:40:17;57227.66;;;-144.48;45.77
10688;BME280;5392;42.688;23.298;2023-08-20T08:42:48;57202.63;;;-144.48;46.06
10688;BME280;5392;42.688;23.298;2023-08-20T08:45:18;57242.28;;;-144.48;45.05
10688;BME280;5392;42.688;23.298;2023-08-20T08:47:47;57227.66;;;-144.48;44.08
10688;BME280;5392;42.688;23.298;2023-08-20T08:50:15;57213.06;;;-144.48;44.81
10688;BME280;5392;42.688;23.298;2023-08-20T08:52:42;57231.84;;;-144.48;45.33
10688;BME280;5392;42.688;23.298;2023-08-20T08:55:11;57206.78;;;-144.48;45.37
10688;BME280;5392;42.688;23.298;2023-08-20T08:57:38;57254.78;;;-144.48;45.07
10688;BME280;5392;42.688;23.298;2023-08-20T09:00:05;57217.22;;;-144.48;45.63
10688;BME280;5392;42.688;23.298;2023-08-20T09:02:32;57196.34;;;-144.48;44.86
10688;BME280;5392;42.688;23.298;2023-08-20T09:04:59;57233.91;;;-144.48;44.34
10688;BME280;5392;42.688;23.298;2023-08-20T09:07:26;57225.56;;;-144.48;44.80
10688;BME280;5392;42.688;23.298;2023-08-20T09:09:57;57204.69;;;-144.48;44.73
10688;BME280;5392;42.688;23.298;2023-08-20T09:12:25;57244.34;;;-144.48;44.83
10688;BME280;5392;42.688;23.298;2023-08-20T09:14:52;57250.63;;;-144.48;45.24
10688;BME280;5392;42.688;23.298;2023-08-20T09:17:20;57206.78;;;-144.48;45.20
10688;BME280;5392;42.688;23.298;2023-08-20T09:19:47;57210.97;;;-144.48;45.41
10688;BME280;5392;42.688;23.298;2023-08-20T09:22:15;57225.56;;;-144.48;46.10
10688;BME280;5392;42.688;23.298;2023-08-20T09:24:46;57265.22;;;-144.48;46.01
10688;BME280;5392;42.688;23.298;2023-08-20T09:27:13;57248.53;;;-144.48;46.30
10688;BME280;5392;42.688;23.298;2023-08-20T09:32:26;57252.72;;;-144.48;46.06
10688;BME280;5392;42.688;23.298;2023-08-20T09:34:55;57254.78;;;-144.48;45.40
10688;BME280;5392;42.688;23.298;2023-08-20T09:37:24;57246.44;;;-144.48;45.23
10688;BME280;5392;42.688;23.298;2023-08-20T09:39:51;57231.84;;;-144.48;45.70
10688;BME280;5392;42.688;23.298;2023-08-20T09:42:18;57242.28;;;-144.48;45.68
10688;BME280;5392;42.688;23.298;2023-08-20T09:44:46;57213.06;;;-144.48;45.14
10688;BME280;5392;42.688;23.298;2023-08-20T09:47:17;57219.31;;;-144.48;45.44
10688;BME280;5392;42.688;23.298;2023-08-20T09:49:47;57281.94;;;-144.48;45.28
10688;BME280;5392;42.688;23.298;2023-08-20T09:52:44;57236.00;;;-144.48;45.53
10688;BME280;5392;42.688;23.298;2023-08-20T09:55:20;57231.84;;;-144.48;45.54
10688;BME280;5392;42.688;23.298;2023-08-20T09:57:49;57263.16;;;-144.48;45.43
10688;BME280;5392;42.688;23.298;2023-08-20T10:00:16;57227.66;;;-144.48;45.21
10688;BME280;5392;42.688;23.298;2023-08-20T10:02:44;57246.44;;;-144.48;45.31
10688;BME280;5392;42.688;23.298;2023-08-20T10:05:12;57248.53;;;-144.48;45.95
10688;BME280;5392;42.688;23.298;2023-08-20T10:07:39;57236.00;;;-144.48;46.29
10688;BME280;5392;42.688;23.298;2023-08-20T10:10:08;57240.19;;;-144.48;46.15
10688;BME280;5392;42.688;23.298;2023-08-20T10:12:37;57269.41;;;-144.48;46.20
10688;BME280;5392;42.688;23.298;2023-08-20T10:15:07;57227.66;;;-144.48;45.78
10688;BME280;5392;42.688;23.298;2023-08-20T10:17:37;57248.53;;;-144.48;45.88
10688;BME280;5392;42.688;23.298;2023-08-20T10:20:05;57250.63;;;-144.48;45.62
10688;BME280;5392;42.688;23.298;2023-08-20T10:25:00;57215.13;;;-144.48;45.36
10688;BME280;5392;42.688;23.298;2023-08-20T10:27:34;57258.97;;;-144.48;45.60
10688;BME280;5392;42.688;23.298;2023-08-20T10:30:08;57227.66;;;-144.48;45.89
10688;BME280;5392;42.688;23.298;2023-08-20T10:35:23;57221.41;;;-144.48;45.36
10688;BME280;5392;42.688;23.298;2023-08-20T10:38:19;57231.84;;;-144.48;45.48
10688;BME280;5392;42.688;23.298;2023-08-20T10:40:47;57265.22;;;-144.48;45.92
10688;BME280;5392;42.688;23.298;2023-08-20T10:43:47;57208.88;;;-144.48;45.75
10688;BME280;5392;42.688;23.298;2023-08-20T10:46:16;57217.22;;;-144.48;45.72
10688;BME280;5392;42.688;23.298;2023-08-20T10:48:56;57215.13;;;-144.48;45.50
10688;BME280;5392;42.688;23.298;2023-08-20T10:51:33;57258.97;;;-144.48;45.36
10688;BME280;5392;42.688;23.298;2023-08-20T10:56:44;57223.50;;;-144.48;45.67
10688;BME280;5392;42.688;23.298;2023-08-20T10:59:21;57219.31;;;-144.48;45.38
10688;BME280;5392;42.688;23.298;2023-08-20T11:01:49;57213.06;;;-144.48;45.91
10688;BME280;5392;42.688;23.298;2023-08-20T11:04:18;57215.13;;;-144.48;45.58
10688;BME280;5392;42.688;23.298;2023-08-20T11:06:46;57206.78;;;-144.48;45.13
10688;BME280;5392;42.688;23.298;2023-08-20T11:09:13;57233.91;;;-144.48;45.29
10688;BME280;5392;42.688;23.298;2023-08-20T11:11:41;57231.84;;;-144.48;44.82
10688;BME280;5392;42.688;23.298;2023-08-20T11:14:13;57202.63;;;-144.48;44.47
10688;BME280;5392;42.688;23.298;2023-08-20T11:16:43;57225.56;;;-144.48;44.88
10688;BME280;5392;42.688;23.298;2023-08-20T11:19:14;57242.28;;;-144.48;44.78
10688;BME280;5392;42.688;23.298;2023-08-20T11:21:42;57273.56;;;-144.48;44.88
10688;BME280;5392;42.688;23.298;2023-08-20T11:24:10;57236.00;;;-144.48;44.46
10688;BME280;5392;42.688;23.298;2023-08-20T11:26:41;57221.41;;;-144.48;44.55
10688;BME280;5392;42.688;23.298;2023-08-20T11:29:15;57219.31;;;-144.48;44.64
10688;BME280;5392;42.688;23.298;2023-08-20T11:31:48;57208.88;;;-144.48;45.26
10688;BME280;5392;42.688;23.298;2023-08-20T11:34:16;57215.13;;;-144.48;45.04
10688;BME280;5392;42.688;23.298;2023-08-20T11:36:44;57238.09;;;-144.48;44.92
10688;BME280;5392;42.688;23.298;2023-08-20T11:39:11;57217.22;;;-144.48;44.66
10688;BME280;5392;42.688;23.298;2023-08-20T11:41:39;57225.56;;;-144.48;44.98
10688;BME280;5392;42.688;23.298;2023-08-20T11:44:09;57240.19;;;-144.48;44.83
10688;BME280;5392;42.688;23.298;2023-08-20T11:46:43;57192.19;;;-144.48;45.54
10688;BME280;5392;42.688;23.298;2023-08-20T11:49:12;57223.50;;;-144.48;45.53
10688;BME280;5392;42.688;23.298;2023-08-20T11:54:16;57221.41;;;-144.48;44.62
10688;BME280;5392;42.688;23.298;2023-08-20T11:56:46;57221.41;;;-144.48;44.41
10688;BME280;5392;42.688;23.298;2023-08-20T11:59:16;57231.84;;;-144.48;44.79
10688;BME280;5392;42.688;23.298;2023-08-20T12:02:01;57261.06;;;-144.48;45.18
10688;BME280;5392;42.688;23.298;2023-08-20T12:04:29;57248.53;;;-144.48;45.36
10688;BME280;5392;42.688;23.298;2023-08-20T12:07:04;57190.09;;;-144.48;45.19
10688;BME280;5392;42.688;23.298;2023-08-20T12:09:32;57223.50;;;-144.48;45.54
10688;BME280;5392;42.688;23.298;2023-08-20T12:12:00;57236.00;;;-144.48;45.25
10688;BME280;5392;42.688;23.298;2023-08-20T12:14:27;57181.75;;;-144.48;44.97
10688;BME280;5392;42.688;23.298;2023-08-20T12:16:55;57181.75;;;-144.48;44.51
10688;BME280;5392;42.688;23.298;2023-08-20T12:19:22;57221.41;;;-144.48;44.47
10688;BME280;5392;42.688;23.298;2023-08-20T12:21:49;57238.09;;;-144.48;44.53
10688;BME280;5392;42.688;23.298;2023-08-20T12:24:17;57229.75;;;-144.48;44.66
10688;BME280;5392;42.688;23.298;2023-08-20T12:26:46;57185.91;;;-144.48;45.09
10688;BME280;5392;42.688;23.298;2023-08-20T12:29:12;57200.53;;;-144.48;45.15
10688;BME280;5392;42.688;23.298;2023-08-20T12:31:40;57225.56;;;-144.48;45.10
10688;BME280;5392;42.688;23.298;2023-08-20T12:34:08;57223.50;;;-144.48;45.26
10688;BME280;5392;42.688;23.298;2023-08-20T12:36:36;57213.06;;;-144.48;45.09
10688;BME280;5392;42.688;23.298;2023-08-20T12:39:03;57196.34;;;-144.48;44.73
10688;BME280;5392;42.688;23.298;2023-08-20T12:41:33;57229.75;;;-144.48;44.87
10688;BME280;5392;42.688;23.298;2023-08-20T12:44:02;57206.78;;;-144.48;45.03
10688;BME280;5392;42.688;23.298;2023-08-20T12:46:29;57213.06;;;-144.48;45.67
10688;BME280;5392;42.688;23.298;2023-08-20T12:48:55;57244.34;;;-144.48;45.56
10688;BME280;5392;42.688;23.298;2023-08-20T12:51:22;57206.78;;;-144.48;45.53
10688;BME280;5392;42.688;23.298;2023-08-20T12:53:49;57248.53;;;-144.48;45.36
10688;BME280;5392;42.688;23.298;2023-08-20T12:56:16;57210.97;;;-144.48;45.48
10688;BME280;5392;42.688;23.298;2023-08-20T12:58:43;57185.91;;;-144.48;45.05
10688;BME280;5392;42.688;23.298;2023-08-20T13:01:10;57206.78;;;-144.48;45.31